Von Pescara nach Perugia (LIBP – LIRZ)

Route: along A14 nnw until roseto along ss150 dct liaf dct pru dct

Flugzeug: Piper PA-34 Seneca.

Offblock-Zeit: 51 Minuten

Online ATC: Keiner

Metar LIBP 121850Z VRB01KT 9999 SCT035 BKN070 09/03 Q1025
Metar LIRZ 121850Z 02005KT CAVOK 07/03 Q1023

Erster Flug mit dem hochauflösenden Mesh.

Flugplan von Pescara nach Perugia
Flugplan von Pescara nach Perugia
Fertig mit den Flugvorbereitungen vor dem Start der Motoren.
Fertig mit den Flugvorbereitungen vor dem Start der Motoren.
Auf dem Taxiway E zum holding point runway 04 in Pescara.
Auf dem Taxiway E zum holding point runway 04 in Pescara.

"D-GANS, ready for departure".

„D-GANS, ready for departure“.

Pescara: Cleared for takeoff.
Pescara: Cleared for takeoff.
Takeoff von Runway 04 in Pescara.
Takeoff von Runway 04 in Pescara.
Nach dem Start in Pescara fliege ich entlang der Autostrada A14.
Nach dem Start in Pescara fliege ich entlang der Autostrada A14.
Überflug über Foligno und den Flugplatz LIAF.
Überflug über Foligno und den Flugplatz LIAF. Das nachfolgende Bild zeigt die gleiche Gegend mit der italienischen Fotoszenerie.
LIAF und Foligno. Die Darstellung mit Fotoszenerie.
LIAF und Foligno. Die Darstellung mit Fotoszenerie.
Final Runway 01 in Perugia.
Final Runway 01 in Perugia.
Final Runway 01 in Perugia. Darstellung mit Fotoszenerie.
Final Runway 01 in Perugia. Darstellung mit Fotoszenerie.
Short final Runway 01 in Perugia (LIRZ).
Short final Runway 01 in Perugia (LIRZ).
Short Final Runway 01 in LIRZ (Perugia). Darstellung mit Fotoszenerie.
Short Final Runway 01 in LIRZ (Perugia). Darstellung mit Fotoszenerie.
Auf dem Taxiway in Perugia.
Auf dem Taxiway in Perugia.
Am Ziel: Apron in Perugia.
Am Ziel: Apron in Perugia.

 

Alps to Sea-Tour Leg 12: LIBP – LIRZ
Tagged on: